Latest Coastal Weather Observations for Barrow Island

IDW60701

Issued at 2:02 am WST Thursday 30 June 2016 (issued every 10 minutes, with the page automatically refreshed every 10 minutes)

About coastal observations | Map of coastal stations | Coastal observations for WA | Marine services | Other Formats
Station Details ID: 005094 Name: BARROW ISLAND AIRPORT Lat: -20.88 Lon: 115.41 Height: 6.4 m
Data from the previous 72 hours. | See also: Recent months at Barrow Island
Date/Time
WST
Temp
°C
Wind Pressure Rain since
9am
mm
Weather Cloud Vis
km
Sea
Height
m
Swell
Dir  Spd
kts
Gust
kts
hPa Trend Height
m
Period
s
Dir
30/02:00am 22.6 S 19 22 1016.7 - 0.0 - - - - - - -
30/01:30am 23.0 S 20 23 1017.0 - 0.0 - - - - - - -
30/01:00am 23.0 S 18 21 1017.3 - 0.0 - - - - - - -
30/12:30am 23.1 S 17 20 1017.5 - 0.0 - - - - - - -
30/12:00am 23.1 S 16 18 1017.4 - 0.0 - - - - - - -
 
Date/Time
WST
Temp
°C
Wind Pressure Rain since
9am
mm
Weather Cloud Vis
km
Sea
Height
m
Swell
Dir  Spd
kts
Gust
kts
hPa Trend Height
m
Period
s
Dir
29/11:30pm 23.4 S 14 16 1017.7 - 0.0 - - - - - - -
29/11:00pm 23.6 S 13 16 1017.9 - 0.0 - - - - - - -
29/10:30pm 23.5 S 13 15 1018.1 - 0.0 - - - - - - -
29/10:00pm 23.6 S 14 16 1018.0 - 0.0 - - - - - - -
29/09:30pm 23.7 S 15 17 1017.9 - 0.0 - - - - - - -
29/09:00pm 23.8 S 14 16 1017.8 - 0.0 - - - - - - -
29/08:30pm 23.5 SSW 10 12 1017.8 - 0.0 - - - - - - -
29/08:00pm 23.5 S 9 10 1017.6 - 0.0 - - - - - - -
29/07:30pm 23.2 SSW 8 9 1017.3 - 0.0 - - - - - - -
29/07:00pm 23.0 SSW 6 7 1017.0 - 0.0 - - - - - - -
29/06:30pm 22.9 SSW 6 7 1016.6 - 0.0 - - - - - - -
29/06:00pm 23.0 SSW 7 8 1016.4 - 0.0 - - - - - - -
29/05:30pm 23.0 SSW 7 8 1016.3 - 0.0 - - - - - - -
29/05:00pm 23.6 SSW 7 8 1016.0 - 0.0 - - - - - - -
29/04:30pm 24.3 SSW 5 6 1015.8 - 0.0 - - - - - - -
29/04:00pm 24.5 SSW 7 8 1015.5 - 0.0 - - - - - - -
29/03:30pm 24.9 SSE 4 5 1015.2 - 0.0 - - - - - - -
29/03:00pm 25.0 SE 5 5 1015.1 - 0.0 - - - - - - -
29/02:30pm 24.5 SE 5 6 1015.2 - 0.0 - - - - - - -
29/02:00pm 24.6 SE 5 7 1015.4 - 0.0 - - - - - - -
29/01:30pm 25.1 SE 6 7 1015.5 - 0.0 - - - - - - -
29/01:00pm 25.1 SE 7 8 1015.9 - 0.0 - - - - - - -
29/12:30pm 24.9 SE 7 8 1016.2 - 0.0 - - - - - - -
29/12:00pm 25.1 SE 7 8 1016.5 - 0.0 - - - - - - -
29/11:30am 25.0 SE 6 7 1016.9 - 0.0 - - - - - - -
29/11:00am 23.8 SSE 6 7 1017.1 - 0.0 - - - - - - -
29/10:30am 23.8 SE 8 9 1017.2 - 0.0 - - - - - - -
29/10:00am 23.9 SE 8 10 1017.3 - 0.0 - - - - - - -
29/09:30am 23.5 SE 6 7 1017.4 - 0.0 - - - - - - -
29/09:00am 23.0 ESE 9 10 1017.2 - 0.0 - - - - - - -
29/08:30am 23.3 SE 6 7 1017.3 - 0.0 - - - - - - -
29/08:00am 22.7 ESE 8 9 1016.9 - 0.0 - - - - - - -
29/07:30am 22.0 SSE 6 7 1016.8 - 0.0 - - - - - - -
29/07:00am 21.5 SE 6 7 1016.5 - 0.0 - - - - - - -
29/06:30am 21.4 SSE 6 7 1016.3 - 0.0 - - - - - - -
29/06:00am 21.3 S 8 9 1016.0 - 0.0 - - - - - - -
29/05:30am 21.0 S 6 7 1015.9 - 0.0 - - - - - - -
29/05:00am 20.9 S 7 8 1015.7 - 0.0 - - - - - - -
29/04:30am 20.8 S 6 7 1015.9 - 0.0 - - - - - - -
29/04:00am 20.8 SSE 5 6 1015.8 - 0.0 - - - - - - -
29/03:30am 21.2 SSE 4 5 1016.1 - 0.0 - - - - - - -
29/03:00am 21.5 S 6 7 1016.2 - 0.0 - - - - - - -
29/02:30am 21.5 SSE 6 7 1016.3 - 0.0 - - - - - - -
29/02:00am 21.8 SSE 7 8 1016.6 - 0.0 - - - - - - -
29/01:30am 21.6 SSE 8 9 1016.9 - 0.0 - - - - - - -
29/01:00am 21.0 SE 9 11 1016.8 - 0.0 - - - - - - -
29/12:30am 21.2 SE 8 9 1016.9 - 0.0 - - - - - - -
29/12:00am 20.8 SE 7 8 1017.0 - 0.0 - - - - - - -
 
Date/Time
WST
Temp
°C
Wind Pressure Rain since
9am
mm
Weather Cloud Vis
km
Sea
Height
m
Swell
Dir  Spd
kts
Gust
kts
hPa Trend Height
m
Period
s
Dir
28/11:30pm 19.4 ENE 4 5 1017.1 - 0.0 - - - - - - -
28/11:00pm 19.3 CALM 0 0 1017.1 - 0.0 - - - - - - -
28/10:30pm 19.4 W 3 4 1017.2 - 0.0 - - - - - - -
28/10:00pm 19.3 WSW 5 5 1017.0 - 0.0 - - - - - - -
28/09:30pm 19.6 W 5 5 1017.0 - 0.0 - - - - - - -
28/09:00pm 19.5 W 4 4 1016.8 - 0.0 - - - - - - -
28/08:30pm 19.7 NW 4 6 1016.7 - 0.0 - - - - - - -
28/08:00pm 20.0 NW 4 4 1016.5 - 0.0 - - - - - - -
28/07:30pm 20.5 NNW 4 5 1016.2 - 0.0 - - - - - - -
28/07:00pm 20.9 N 5 5 1016.0 - 0.0 - - - - - - -
28/06:30pm 21.3 N 5 6 1015.7 - 0.0 - - - - - - -
28/06:00pm 22.4 NE 4 5 1015.2 - 0.0 - - - - - - -
28/05:30pm 22.9 NE 6 7 1014.9 - 0.0 - - - - - - -
28/05:00pm 23.1 NE 8 9 1014.7 - 0.0 - - - - - - -
28/04:30pm 23.6 NE 8 9 1014.6 - 0.0 - - - - - - -
28/04:00pm 23.5 NE 8 9 1014.7 - 0.0 - - - - - - -
28/03:30pm 23.7 ENE 9 10 1014.8 - 0.0 - - - - - - -
28/03:00pm 24.0 ENE 10 11 1014.8 - 0.0 - - - - - - -
28/02:30pm 23.9 ENE 11 13 1014.9 - 0.0 - - - - - - -
28/02:00pm 23.7 ENE 12 14 1015.1 - 0.0 - - - - - - -
28/01:30pm 23.3 ENE 14 16 1015.3 - 0.0 - - - - - - -
28/01:00pm 23.1 ENE 14 15 1015.7 - 0.0 - - - - - - -
28/12:30pm 23.0 NE 16 19 1016.0 - 0.0 - - - - - - -
28/12:00pm 23.0 ENE 16 19 1016.2 - 0.0 - - - - - - -
28/11:30am 22.9 ENE 14 15 1016.7 - 0.0 - - - - - - -
28/11:00am 22.7 ENE 15 17 1017.2 - 0.0 - - - - - - -
28/10:30am 22.5 ENE 15 17 1017.5 - 0.0 - - - - - - -
28/10:00am 22.2 E 14 16 1017.6 - 0.0 - - - - - - -
28/09:30am 21.9 E 14 16 1017.5 - 0.0 - - - - - - -
28/09:00am 21.5 E 15 17 1017.3 - 0.0 - - - - - - -
28/08:30am 21.0 E 16 18 1017.1 - 0.0 - - - - - - -
28/08:00am 20.6 E 16 19 1016.8 - 0.0 - - - - - - -
28/07:30am 20.7 E 15 17 1016.7 - 0.0 - - - - - - -
28/07:00am 20.3 E 14 15 1016.7 - 0.0 - - - - - - -
28/06:30am 20.3 ESE 15 17 1016.2 - 0.0 - - - - - - -
28/06:00am 20.5 ESE 14 18 1015.8 - 0.0 - - - - - - -
28/05:30am 20.4 SE 14 16 1015.6 - 0.0 - - - - - - -
28/05:00am 20.3 ESE 15 17 1015.2 - 0.0 - - - - - - -
28/04:30am 20.1 SE 16 17 1015.2 - 0.0 - - - - - - -
28/04:00am 20.1 SE 14 15 1015.5 - 0.0 - - - - - - -
28/03:30am 20.3 ESE 14 16 1015.4 - 0.0 - - - - - - -
28/03:00am 20.3 ESE 13 15 1015.6 - 0.0 - - - - - - -
28/02:30am 20.4 ESE 11 12 1015.8 - 0.0 - - - - - - -
28/02:00am 20.5 ESE 13 15 1015.9 - 0.0 - - - - - - -
28/01:30am 20.5 ESE 12 14 1016.0 - 0.0 - - - - - - -
28/01:00am 20.4 ESE 13 15 1015.9 - 0.0 - - - - - - -
28/12:30am 20.3 ESE 13 15 1016.0 - 0.0 - - - - - - -
28/12:00am 20.2 ESE 14 15 1016.1 - 0.0 - - - - - - -
 
Date/Time
WST
Temp
°C
Wind Pressure Rain since
9am
mm
Weather Cloud Vis
km
Sea
Height
m
Swell
Dir  Spd
kts
Gust
kts
hPa Trend Height
m
Period
s
Dir
27/11:30pm 20.2 ESE 13 15 1016.3 - 0.0 - - - - - - -
27/11:00pm 20.1 ESE 13 15 1016.4 - 0.0 - - - - - - -
27/10:30pm 20.1 ESE 11 13 1016.9 - 0.0 - - - - - - -
27/10:00pm 20.0 ESE 10 12 1017.0 - 0.0 - - - - - - -
27/09:30pm 19.7 ESE 10 12 1016.8 - 0.0 - - - - - - -
27/09:00pm 17.4 S 4 5 1017.1 - 0.0 - - - - - - -
27/08:30pm 16.2 SW 2 5 1017.2 - 0.0 - - - - - - -
27/08:00pm 16.5 W 3 5 1016.9 - 0.0 - - - - - - -
27/07:30pm 17.2 N 4 6 1016.7 - 0.0 - - - - - - -
27/07:00pm 19.8 NE 6 8 1016.5 - 0.0 - - - - - - -
27/06:30pm 20.1 ENE 8 9 1016.1 - 0.0 - - - - - - -
27/06:00pm 19.9 ENE 10 12 1015.7 - 0.0 - - - - - - -
27/05:30pm 20.0 ENE 11 13 1015.5 - 0.0 - - - - - - -
27/05:00pm 20.1 ENE 13 15 1015.3 - 0.0 - - - - - - -
27/04:30pm 20.2 ENE 14 17 1015.4 - 0.0 - - - - - - -
27/04:00pm 20.3 ENE 15 19 1015.3 - 0.0 - - - - - - -
27/03:30pm 20.4 ENE 15 19 1015.4 - 0.0 - - - - - - -
27/03:00pm 20.3 ENE 16 19 1015.4 - 0.0 - - - - - - -
27/02:30pm 20.1 ENE 18 22 1015.3 - 0.0 - - - - - - -
27/02:00pm 20.0 ENE 17 21 1015.4 - 0.0 - - - - - - -
27/01:30pm 20.0 E 18 22 1015.5 - 0.0 - - - - - - -
27/01:00pm 20.3 E 19 23 1016.0 - 0.0 - - - - - - -
27/12:30pm 19.9 ENE 21 24 1016.5 - 0.0 - - - - - - -
27/12:00pm 19.8 E 20 24 1016.9 - 0.0 - - - - - - -
27/11:30am 19.9 ENE 20 25 1017.3 - 0.0 - - - - - - -
27/11:00am 19.6 ENE 22 25 1017.7 - 0.0 - - - - - - -
27/10:30am 19.4 ENE 22 26 1018.0 - 0.0 - - - - - - -
27/10:00am 19.4 ENE 23 27 1018.0 - 0.0 - - - - - - -
27/09:30am 19.3 ENE 24 28 1018.1 - 0.0 - - - - - - -
27/09:00am 19.2 E 24 28 1017.8 - 0.0 - - - - - - -
27/08:30am 19.0 E 25 30 1017.6 - 0.0 - - - - - - -
27/08:00am 19.2 E 26 30 1017.5 - 0.0 - - - - - - -
27/07:30am 19.3 E 25 29 1017.6 - 0.0 - - - - - - -
27/07:00am 19.1 E 25 29 1017.3 - 0.0 - - - - - - -
27/06:30am 19.2 E 25 30 1017.1 - 0.0 - - - - - - -
27/06:00am 19.5 E 25 30 1017.1 - 0.0 - - - - - - -
27/05:30am 19.6 E 24 29 1016.9 - 0.0 - - - - - - -
27/05:00am 19.9 E 23 27 1016.8 - 0.0 - - - - - - -
27/04:30am 20.2 E 22 27 1016.9 - 0.0 - - - - - - -
27/04:00am 20.6 E 22 25 1016.7 - 0.0 - - - - - - -
27/03:30am 20.9 ENE 18 22 1016.7 - 0.0 - - - - - - -
27/03:00am 21.2 ENE 20 23 1016.8 - 0.0 - - - - - - -
27/02:30am 21.1 ENE 19 22 1016.9 - 0.0 - - - - - - -

Other Formats:

Comma delimited format used in spreadsheet applications
http://www.bom.gov.au/fwo/IDW60701/IDW60701.95304.axf

JavaScript Object Notation format (JSON) in row-major order
http://www.bom.gov.au/fwo/IDW60701/IDW60701.95304.json